createdAt,value
2022-08-05T00:01:35.603Z,16.20
2022-08-05T00:04:08.298Z,16.21
2022-08-05T00:06:37.103Z,16.20
2022-08-05T00:09:12.875Z,16.19
2022-08-05T00:11:49.017Z,16.19
2022-08-05T00:14:27.546Z,16.19
2022-08-05T00:16:57.821Z,16.18
2022-08-05T00:19:33.216Z,16.16
2022-08-05T00:22:11.471Z,16.13
2022-08-05T00:24:42.352Z,16.10
2022-08-05T00:27:28.583Z,16.10
2022-08-05T00:30:00.572Z,16.09
2022-08-05T00:32:31.847Z,16.09
2022-08-05T00:35:07.593Z,16.06
2022-08-05T00:37:52.708Z,16.00
2022-08-05T00:40:28.190Z,15.95
2022-08-05T00:43:00.109Z,15.88
2022-08-05T00:45:42.812Z,15.83
2022-08-05T00:48:15.774Z,15.76
2022-08-05T00:50:46.630Z,15.71
2022-08-05T00:54:01.242Z,15.67
2022-08-05T00:56:07.963Z,15.62
2022-08-05T00:58:37.169Z,15.58
2022-08-05T01:01:08.837Z,15.54
2022-08-05T01:03:39.741Z,15.49
2022-08-05T01:06:11.159Z,15.44
2022-08-05T01:08:44.210Z,15.38
2022-08-05T01:11:33.272Z,15.33
2022-08-05T01:14:16.993Z,15.30
2022-08-05T01:17:16.477Z,15.25
2022-08-05T01:20:18.347Z,15.23
2022-08-05T01:23:15.066Z,15.19
2022-08-05T01:26:13.048Z,15.16
2022-08-05T01:29:00.573Z,15.14
2022-08-05T01:31:44.518Z,15.11
2022-08-05T01:34:22.643Z,15.09
2022-08-05T01:37:03.067Z,15.07
2022-08-05T01:39:46.728Z,15.04
2022-08-05T01:42:19.605Z,15.02
2022-08-05T01:44:54.109Z,14.99
2022-08-05T01:47:38.644Z,14.97
2022-08-05T01:50:16.056Z,14.95
2022-08-05T01:52:49.619Z,14.93
2022-08-05T01:55:21.434Z,14.90
2022-08-05T01:58:10.466Z,14.91
2022-08-05T02:00:47.485Z,14.90
2022-08-05T02:03:31.247Z,14.88
2022-08-05T02:06:03.539Z,14.87
2022-08-05T02:08:58.627Z,14.88
2022-08-05T02:11:47.039Z,14.91
2022-08-05T02:14:26.983Z,14.96
2022-08-05T02:17:00.925Z,15.00
2022-08-05T02:19:47.683Z,14.99
2022-08-05T02:22:26.381Z,15.00
2022-08-05T02:25:06.595Z,15.00
2022-08-05T02:27:58.883Z,15.01
2022-08-05T02:30:35.603Z,15.01
2022-08-05T02:33:07.168Z,15.02
2022-08-05T02:35:44.963Z,15.03
2022-08-05T02:38:35.142Z,15.05
2022-08-05T02:41:06.458Z,15.06
2022-08-05T02:44:02.307Z,15.03
2022-08-05T02:46:43.839Z,14.98
2022-08-05T02:49:23.458Z,14.95
2022-08-05T02:52:02.658Z,14.93
2022-08-05T02:54:37.014Z,14.90
2022-08-05T02:58:11.717Z,14.85
2022-08-05T02:59:59.486Z,14.79
2022-08-05T03:02:37.144Z,14.76
2022-08-05T03:05:09.849Z,14.74
2022-08-05T03:08:00.505Z,14.72
2022-08-05T03:10:29.009Z,14.69
2022-08-05T03:15:24.661Z,14.62
2022-08-05T03:17:57.879Z,14.59
2022-08-05T03:20:27.752Z,14.57
2022-08-05T03:22:57.237Z,14.56
2022-08-05T03:25:32.377Z,14.54
2022-08-05T03:28:05.334Z,14.53
2022-08-05T03:30:34.583Z,14.51
2022-08-05T03:33:05.789Z,14.50
2022-08-05T03:35:40.544Z,14.49
2022-08-05T03:38:14.407Z,14.51
2022-08-05T03:40:45.176Z,14.52
2022-08-05T03:44:08.533Z,14.54
2022-08-05T03:46:05.669Z,14.56
2022-08-05T03:48:36.890Z,14.59
2022-08-05T03:52:37.866Z,14.64
2022-08-05T03:55:54.776Z,14.75
2022-08-05T03:57:16.018Z,14.90
2022-08-05T03:59:54.841Z,15.04
2022-08-05T04:02:37.565Z,15.15
2022-08-05T04:05:09.930Z,15.24
2022-08-05T04:07:57.362Z,15.30
2022-08-05T04:10:32.118Z,15.36
2022-08-05T04:13:08.296Z,15.42
2022-08-05T04:15:36.931Z,15.49
2022-08-05T04:18:07.368Z,15.56
2022-08-05T04:20:37.956Z,15.61
2022-08-05T04:23:12.693Z,15.68
2022-08-05T04:25:57.077Z,15.74
2022-08-05T04:28:30.842Z,15.83
2022-08-05T04:31:01.437Z,15.92
2022-08-05T04:34:19.302Z,16.04
2022-08-05T04:36:45.812Z,16.19
2022-08-05T04:39:07.474Z,16.33
2022-08-05T04:41:36.850Z,16.44
2022-08-05T04:44:09.357Z,16.57
2022-08-05T04:46:38.913Z,16.72
2022-08-05T04:49:14.686Z,16.88
2022-08-05T04:51:44.247Z,17.06
2022-08-05T04:54:14.856Z,17.23
2022-08-05T04:56:43.615Z,17.41
2022-08-05T04:59:22.461Z,17.59
2022-08-05T05:02:36.201Z,17.78
2022-08-05T05:04:50.489Z,17.97
2022-08-05T05:07:29.226Z,18.16
2022-08-05T05:09:58.241Z,18.36
2022-08-05T05:12:27.246Z,18.52
2022-08-05T05:14:56.184Z,18.67
2022-08-05T05:17:56.485Z,18.84
2022-08-05T05:20:14.577Z,19.04
2022-08-05T05:22:44.142Z,19.20
2022-08-05T05:25:17.101Z,19.33
2022-08-05T05:27:48.628Z,19.46
2022-08-05T05:30:30.674Z,19.60
2022-08-05T05:33:16.455Z,19.76
2022-08-05T05:35:47.468Z,19.91
2022-08-05T05:38:22.736Z,20.03
2022-08-05T05:40:56.912Z,20.15
2022-08-05T05:43:54.443Z,20.26
2022-08-05T05:46:17.648Z,20.39
2022-08-05T05:48:48.833Z,20.50
2022-08-05T05:51:28.013Z,20.62
2022-08-05T05:53:59.759Z,20.75
2022-08-05T05:56:34.403Z,20.88
2022-08-05T05:59:06.712Z,20.97
2022-08-05T06:01:57.176Z,21.05
2022-08-05T06:04:26.569Z,21.12
2022-08-05T06:06:54.990Z,21.23
2022-08-05T06:09:50.191Z,21.32
2022-08-05T06:12:18.253Z,21.43
2022-08-05T06:14:47.970Z,21.55
2022-08-05T06:17:22.076Z,21.64
2022-08-05T06:19:56.588Z,21.77
2022-08-05T06:22:33.683Z,21.88
2022-08-05T06:25:24.692Z,22.04
2022-08-05T06:28:10.412Z,22.22
2022-08-05T06:30:41.327Z,22.39
2022-08-05T06:33:10.733Z,22.55
2022-08-05T06:36:06.972Z,22.72
2022-08-05T06:38:36.437Z,22.89
2022-08-05T06:41:08.214Z,23.03
2022-08-05T06:43:57.714Z,23.17
2022-08-05T06:46:29.841Z,23.30
2022-08-05T06:49:01.809Z,23.44
2022-08-05T06:51:33.962Z,23.58
2022-08-05T06:54:05.049Z,23.69
2022-08-05T06:56:34.964Z,23.81
2022-08-05T06:59:09.415Z,23.97
2022-08-05T07:01:40.762Z,24.11
2022-08-05T07:04:10.836Z,24.25
2022-08-05T07:06:42.979Z,24.39
2022-08-05T07:09:11.355Z,24.53
2022-08-05T07:11:45.509Z,24.70
2022-08-05T07:14:36.854Z,24.85
2022-08-05T07:18:01.615Z,25.01
2022-08-05T07:20:30.953Z,25.17
2022-08-05T07:22:43.597Z,25.31
2022-08-05T07:25:23.553Z,25.44
2022-08-05T07:28:05.797Z,25.62
2022-08-05T07:30:38.276Z,25.72
2022-08-05T07:33:15.581Z,25.84
2022-08-05T07:36:03.458Z,25.93
2022-08-05T07:38:42.683Z,26.14
2022-08-05T07:42:07.970Z,26.31
2022-08-05T07:44:14.206Z,26.54
2022-08-05T07:46:49.807Z,26.75
2022-08-05T07:49:20.693Z,26.91
2022-08-05T07:51:53.777Z,27.00
2022-08-05T07:54:31.189Z,27.09
2022-08-05T07:57:23.649Z,27.24
2022-08-05T07:59:53.991Z,27.30
2022-08-05T08:02:30.622Z,27.31
2022-08-05T08:05:01.183Z,27.37
2022-08-05T08:07:39.780Z,27.44
2022-08-05T08:10:20.630Z,27.60
2022-08-05T08:12:50.299Z,27.78
2022-08-05T08:15:37.353Z,27.96
2022-08-05T08:18:13.859Z,28.11
2022-08-05T08:21:02.179Z,28.28
2022-08-05T08:24:01.192Z,28.50
2022-08-05T08:26:26.915Z,28.68
2022-08-05T08:29:09.755Z,28.86
2022-08-05T08:31:50.436Z,29.06
2022-08-05T08:34:30.684Z,29.24
2022-08-05T08:37:04.696Z,29.38
2022-08-05T08:39:37.703Z,29.47
2022-08-05T08:42:50.311Z,29.55
2022-08-05T08:45:18.981Z,29.56
2022-08-05T08:48:10.755Z,29.58
2022-08-05T08:51:03.933Z,29.65
2022-08-05T08:53:36.863Z,29.73
2022-08-05T08:56:06.602Z,29.83
2022-08-05T08:58:36.956Z,29.93
2022-08-05T09:01:11.067Z,30.04
2022-08-05T09:03:55.387Z,30.21
2022-08-05T09:06:29.742Z,30.36
2022-08-05T09:09:01.474Z,30.50
2022-08-05T09:11:51.549Z,30.71
2022-08-05T09:14:56.899Z,30.94
2022-08-05T09:17:40.053Z,31.13
2022-08-05T09:20:05.820Z,31.24
2022-08-05T09:23:07.870Z,31.38
2022-08-05T09:26:02.122Z,31.47
2022-08-05T09:28:34.090Z,31.50
2022-08-05T09:31:43.405Z,31.54
2022-08-05T09:34:01.444Z,31.65
2022-08-05T09:36:56.278Z,31.81
2022-08-05T09:39:41.770Z,32.03
2022-08-05T09:42:24.151Z,32.27
2022-08-05T09:46:05.070Z,32.53
2022-08-05T09:47:56.321Z,32.71
2022-08-05T09:50:44.096Z,32.82
2022-08-05T09:53:22.975Z,33.05
2022-08-05T09:56:03.930Z,33.31
2022-08-05T09:58:33.333Z,33.49
2022-08-05T10:01:15.164Z,33.66
2022-08-05T10:04:10.701Z,33.84
2022-08-05T10:06:41.207Z,33.99
2022-08-05T10:09:27.418Z,34.11
2022-08-05T10:12:18.933Z,34.15
2022-08-05T10:15:17.266Z,34.14
2022-08-05T10:18:22.705Z,34.11
2022-08-05T10:21:08.511Z,34.16
2022-08-05T10:23:59.899Z,34.22
2022-08-05T10:26:32.328Z,34.30
2022-08-05T10:29:02.678Z,34.36
2022-08-05T10:32:53.842Z,34.39
2022-08-05T10:34:25.932Z,34.44
2022-08-05T10:36:59.853Z,34.55
2022-08-05T10:39:59.075Z,34.61
2022-08-05T10:42:34.257Z,34.68
2022-08-05T10:45:20.826Z,34.58
2022-08-05T10:48:30.159Z,34.71
2022-08-05T10:51:21.815Z,34.98
2022-08-05T10:53:51.098Z,35.26
2022-08-05T10:56:30.293Z,35.34
2022-08-05T10:59:12.426Z,35.26
2022-08-05T11:02:04.821Z,35.17
2022-08-05T11:04:47.359Z,35.30
2022-08-05T11:07:18.649Z,35.43
2022-08-05T11:10:10.048Z,35.22
2022-08-05T11:12:42.255Z,35.15
2022-08-05T11:15:20.125Z,35.12
2022-08-05T11:17:58.089Z,34.96
2022-08-05T11:20:39.192Z,35.10
2022-08-05T11:24:05.632Z,35.24
2022-08-05T11:26:32.414Z,35.56
2022-08-05T11:29:11.631Z,35.61
2022-08-05T11:31:58.826Z,35.65
2022-08-05T11:34:51.607Z,35.82
2022-08-05T11:38:29.891Z,36.08
2022-08-05T11:41:34.503Z,36.15
2022-08-05T11:44:08.317Z,36.19
2022-08-05T11:47:09.937Z,36.24
2022-08-05T11:49:29.391Z,36.13
2022-08-05T11:52:11.391Z,36.12
2022-08-05T11:54:41.297Z,36.10
2022-08-05T11:57:25.331Z,36.02
2022-08-05T11:59:54.971Z,36.00
2022-08-05T12:02:31.240Z,36.24
2022-08-05T12:05:06.804Z,36.36
2022-08-05T12:08:03.553Z,36.47
2022-08-05T12:10:43.567Z,36.45
2022-08-05T12:13:27.822Z,36.39
2022-08-05T12:16:15.490Z,36.34
2022-08-05T12:18:49.623Z,36.35
2022-08-05T12:21:31.879Z,36.38
2022-08-05T12:24:27.235Z,36.37
2022-08-05T12:26:56.748Z,36.50
2022-08-05T12:29:27.198Z,36.51
2022-08-05T12:31:57.955Z,36.39
2022-08-05T12:34:37.190Z,36.28
2022-08-05T12:37:30.136Z,36.06
2022-08-05T12:40:03.706Z,35.96
2022-08-05T12:42:39.894Z,36.02
2022-08-05T12:45:11.331Z,36.03
2022-08-05T12:48:01.093Z,35.99
2022-08-05T12:50:30.973Z,35.86
2022-08-05T12:53:02.462Z,35.92
2022-08-05T12:55:32.495Z,35.93
2022-08-05T12:58:49.558Z,35.95
2022-08-05T13:02:01.518Z,36.15
2022-08-05T13:03:42.448Z,36.28
2022-08-05T13:06:18.199Z,36.48
2022-08-05T13:08:52.245Z,36.70
2022-08-05T13:11:57.933Z,36.80
2022-08-05T13:14:24.979Z,36.70
2022-08-05T13:17:25.111Z,36.57
2022-08-05T13:20:05.517Z,36.62
2022-08-05T13:22:36.354Z,36.73
2022-08-05T13:25:19.170Z,36.83
2022-08-05T13:27:52.779Z,36.80
2022-08-05T13:30:34.570Z,36.84
2022-08-05T13:33:05.484Z,36.91
2022-08-05T13:35:47.210Z,36.98
2022-08-05T13:38:34.180Z,37.00
2022-08-05T13:41:05.186Z,37.01
2022-08-05T13:43:44.737Z,37.10
2022-08-05T13:46:50.916Z,37.09
2022-08-05T13:49:12.988Z,36.94
2022-08-05T13:51:46.199Z,36.85
2022-08-05T13:54:21.118Z,36.73
2022-08-05T13:56:53.958Z,36.59
2022-08-05T13:59:24.914Z,36.39
2022-08-05T14:02:00.098Z,36.24
2022-08-05T14:04:51.061Z,36.06
2022-08-05T14:07:56.979Z,35.81
2022-08-05T14:10:28.442Z,35.58
2022-08-05T14:12:57.821Z,35.46
2022-08-05T14:16:08.520Z,35.36
2022-08-05T14:18:18.274Z,35.23
2022-08-05T14:20:48.366Z,35.00
2022-08-05T14:23:24.902Z,34.82
2022-08-05T14:25:59.017Z,34.65
2022-08-05T14:28:29.699Z,34.49
2022-08-05T14:31:01.365Z,34.44
2022-08-05T14:33:32.490Z,34.38
2022-08-05T14:36:21.256Z,34.22
2022-08-05T14:38:51.417Z,33.99
2022-08-05T14:41:20.505Z,33.81
2022-08-05T14:44:01.539Z,33.62
2022-08-05T14:46:35.248Z,33.39
2022-08-05T14:49:07.607Z,33.21
2022-08-05T14:51:42.830Z,33.05
2022-08-05T14:54:29.816Z,32.89
2022-08-05T14:56:59.398Z,32.73
2022-08-05T14:59:29.176Z,32.62
2022-08-05T15:01:58.358Z,32.50
2022-08-05T15:04:29.023Z,32.39
2022-08-05T15:06:57.817Z,32.27
2022-08-05T15:09:52.428Z,32.13
2022-08-05T15:12:16.757Z,32.02
2022-08-05T15:14:50.465Z,31.93
2022-08-05T15:17:46.257Z,31.81
2022-08-05T15:20:18.558Z,31.67
2022-08-05T15:22:53.961Z,31.56
2022-08-05T15:25:52.772Z,31.48
2022-08-05T15:28:15.783Z,31.40
2022-08-05T15:30:46.420Z,31.33
2022-08-05T15:33:56.734Z,31.24
2022-08-05T15:36:05.679Z,31.15
2022-08-05T15:38:41.789Z,31.07
2022-08-05T15:41:21.973Z,30.99
2022-08-05T15:43:55.405Z,30.92
2022-08-05T15:46:24.872Z,30.86
2022-08-05T15:49:01.035Z,30.79
2022-08-05T15:52:09.933Z,30.71
2022-08-05T15:54:34.891Z,30.62
2022-08-05T15:57:07.295Z,30.57
2022-08-05T15:59:36.616Z,30.51
2022-08-05T16:02:09.601Z,30.44
2022-08-05T16:04:43.948Z,30.40
2022-08-05T16:07:13.342Z,30.33
2022-08-05T16:09:43.595Z,30.28
2022-08-05T16:12:12.270Z,30.20
2022-08-05T16:14:41.141Z,30.13
2022-08-05T16:17:10.133Z,30.05
2022-08-05T16:20:04.800Z,29.97
2022-08-05T16:22:34.395Z,29.85
2022-08-05T16:25:05.436Z,29.73
2022-08-05T16:28:00.362Z,29.61
2022-08-05T16:30:28.774Z,29.49
2022-08-05T16:32:59.028Z,29.44
2022-08-05T16:35:32.429Z,29.37
2022-08-05T16:38:15.151Z,29.29
2022-08-05T16:40:51.858Z,29.20
2022-08-05T16:43:25.824Z,29.12
2022-08-05T16:46:03.987Z,29.04
2022-08-05T16:48:38.577Z,28.97
2022-08-05T16:51:09.143Z,28.90
2022-08-05T16:54:02.457Z,28.82
2022-08-05T16:56:30.837Z,28.74
2022-08-05T16:59:07.609Z,28.65
2022-08-05T17:01:53.996Z,28.55
2022-08-05T17:04:26.113Z,28.43
2022-08-05T17:07:01.828Z,28.31
2022-08-05T17:09:38.865Z,28.20
2022-08-05T17:12:22.606Z,28.04
2022-08-05T17:15:09.376Z,27.85
2022-08-05T17:17:42.157Z,27.73
2022-08-05T17:20:14.529Z,27.54
2022-08-05T17:22:45.243Z,27.42
2022-08-05T17:25:40.170Z,27.34
2022-08-05T17:28:09.973Z,27.24
2022-08-05T17:30:50.322Z,27.15
2022-08-05T17:33:20.813Z,27.05
2022-08-05T17:36:08.110Z,26.95
2022-08-05T17:38:37.534Z,26.84
2022-08-05T17:41:11.663Z,26.73
2022-08-05T17:43:57.304Z,26.60
2022-08-05T17:46:26.294Z,26.47
2022-08-05T17:48:55.433Z,26.37
2022-08-05T17:51:23.721Z,26.24
2022-08-05T17:53:55.045Z,26.12
2022-08-05T17:56:23.319Z,26.00
2022-08-05T17:58:56.887Z,25.89
2022-08-05T18:01:25.209Z,25.78
2022-08-05T18:03:59.666Z,25.67
2022-08-05T18:06:32.742Z,25.56
2022-08-05T18:09:03.701Z,25.46
2022-08-05T18:11:33.406Z,25.35
2022-08-05T18:14:06.808Z,25.24
2022-08-05T18:16:51.116Z,25.13
2022-08-05T18:19:22.777Z,24.98
2022-08-05T18:22:09.801Z,24.84
2022-08-05T18:24:40.647Z,24.66
2022-08-05T18:27:12.482Z,24.49
2022-08-05T18:29:53.477Z,24.30
2022-08-05T18:32:28.164Z,24.11
2022-08-05T18:34:57.931Z,23.95
2022-08-05T18:37:34.481Z,23.83
2022-08-05T18:41:50.239Z,23.68
2022-08-05T18:42:58.871Z,23.57
2022-08-05T18:45:41.579Z,23.46
2022-08-05T18:48:12.037Z,23.32
2022-08-05T18:52:05.669Z,23.17
2022-08-05T18:54:07.064Z,23.02
2022-08-05T18:56:38.088Z,22.92
2022-08-05T18:59:42.731Z,22.82
2022-08-05T19:01:58.018Z,22.70
2022-08-05T19:04:27.554Z,22.57
2022-08-05T19:06:56.121Z,22.46
2022-08-05T19:09:24.400Z,22.39
2022-08-05T19:12:00.362Z,22.31
2022-08-05T19:14:59.182Z,22.20
2022-08-05T19:17:19.420Z,22.11
2022-08-05T19:19:48.538Z,22.01
2022-08-05T19:22:17.741Z,21.92
2022-08-05T19:24:56.008Z,21.83
2022-08-05T19:27:30.282Z,21.76
2022-08-05T19:29:58.879Z,21.69
2022-08-05T19:32:27.878Z,21.62
2022-08-05T19:34:59.906Z,21.56
2022-08-05T19:38:04.520Z,21.47
2022-08-05T19:40:24.106Z,21.36
2022-08-05T19:43:04.618Z,21.30
2022-08-05T19:45:36.900Z,21.22
2022-08-05T19:48:06.422Z,21.17
2022-08-05T19:50:35.434Z,21.10
2022-08-05T19:53:10.314Z,21.02
2022-08-05T19:56:15.347Z,20.95
2022-08-05T19:58:29.747Z,20.89
2022-08-05T20:00:58.942Z,20.83
2022-08-05T20:03:27.562Z,20.77
2022-08-05T20:06:15.552Z,20.69
2022-08-05T20:08:47.350Z,20.63
2022-08-05T20:11:19.494Z,20.55
2022-08-05T20:13:54.862Z,20.49
2022-08-05T20:16:36.308Z,20.41
2022-08-05T20:19:05.872Z,20.35
2022-08-05T20:21:35.130Z,20.30
2022-08-05T20:24:07.678Z,20.24
2022-08-05T20:26:39.950Z,20.19
2022-08-05T20:29:26.463Z,20.13
2022-08-05T20:31:58.262Z,20.09
2022-08-05T20:34:28.338Z,20.05
2022-08-05T20:36:56.687Z,20.02
2022-08-05T20:39:25.093Z,19.99
2022-08-05T20:42:05.324Z,19.96
2022-08-05T20:44:37.940Z,19.92
2022-08-05T20:47:07.589Z,19.87
2022-08-05T20:49:39.569Z,19.83
2022-08-05T20:52:10.630Z,19.80
2022-08-05T20:54:42.819Z,19.76
2022-08-05T20:57:43.530Z,19.70
2022-08-05T21:00:39.993Z,19.67
2022-08-05T21:03:07.202Z,19.63
2022-08-05T21:05:53.970Z,19.60
2022-08-05T21:08:26.490Z,19.56
2022-08-05T21:10:58.454Z,19.51
2022-08-05T21:13:47.976Z,19.47
2022-08-05T21:16:20.694Z,19.44
2022-08-05T21:18:51.395Z,19.42
2022-08-05T21:21:19.716Z,19.38
2022-08-05T21:23:52.881Z,19.36
2022-08-05T21:26:21.553Z,19.35
2022-08-05T21:28:54.731Z,19.33
2022-08-05T21:31:41.650Z,19.29
2022-08-05T21:34:10.552Z,19.23
2022-08-05T21:36:42.452Z,19.18
2022-08-05T21:39:17.039Z,19.14
2022-08-05T21:42:01.065Z,19.10
2022-08-05T21:44:31.821Z,19.05
2022-08-05T21:47:00.931Z,19.01
2022-08-05T21:49:48.095Z,18.96
2022-08-05T21:52:27.976Z,18.92
2022-08-05T21:55:06.516Z,18.89
2022-08-05T21:57:36.459Z,18.85
2022-08-05T22:00:13.017Z,18.82
2022-08-05T22:02:42.921Z,18.79
2022-08-05T22:05:12.457Z,18.76
2022-08-05T22:07:59.470Z,18.76
2022-08-05T22:10:31.061Z,18.74
2022-08-05T22:14:05.099Z,18.73
2022-08-05T22:16:00.595Z,18.72
2022-08-05T22:18:33.053Z,18.72
2022-08-05T22:21:04.688Z,18.70
2022-08-05T22:24:02.792Z,18.68
2022-08-05T22:26:50.947Z,18.65
2022-08-05T22:29:26.567Z,18.62
2022-08-05T22:32:02.665Z,18.59
2022-08-05T22:34:32.846Z,18.57
2022-08-05T22:37:03.932Z,18.54
2022-08-05T22:39:34.784Z,18.49
2022-08-05T22:42:12.643Z,18.45
2022-08-05T22:44:53.670Z,18.40
2022-08-05T22:47:30.127Z,18.35
2022-08-05T22:50:19.552Z,18.33
2022-08-05T22:52:50.186Z,18.31
2022-08-05T22:55:21.485Z,18.31
2022-08-05T22:57:51.400Z,18.31
2022-08-05T23:00:22.127Z,18.31
2022-08-05T23:02:52.348Z,18.31
2022-08-05T23:05:22.469Z,18.29
2022-08-05T23:07:52.262Z,18.28
2022-08-05T23:10:23.893Z,18.26
2022-08-05T23:12:54.367Z,18.22
2022-08-05T23:15:27.086Z,18.19
2022-08-05T23:18:02.063Z,18.16
2022-08-05T23:20:33.418Z,18.10
2022-08-05T23:23:08.572Z,18.05
2022-08-05T23:25:55.015Z,17.99
2022-08-05T23:28:27.619Z,17.94
2022-08-05T23:31:15.839Z,17.88
2022-08-05T23:34:04.396Z,17.81
2022-08-05T23:36:40.217Z,17.76
2022-08-05T23:39:17.554Z,17.74
2022-08-05T23:42:00.595Z,17.73
2022-08-05T23:44:31.369Z,17.72
2022-08-05T23:47:15.185Z,17.72
2022-08-05T23:49:45.946Z,17.71
2022-08-05T23:52:27.772Z,17.69
2022-08-05T23:54:58.391Z,17.66
2022-08-05T23:57:28.349Z,17.63
